createdAt,value
2023-01-26T00:01:31.517Z,27.13
2023-01-26T00:04:00.723Z,27.25
2023-01-26T00:06:28.108Z,27.17
2023-01-26T00:08:54.470Z,26.34
2023-01-26T00:11:20.889Z,26.64
2023-01-26T00:13:49.591Z,26.16
2023-01-26T00:16:15.970Z,26.33
2023-01-26T00:18:43.507Z,25.75
2023-01-26T00:21:10.298Z,26.97
2023-01-26T00:23:36.858Z,26.36
2023-01-26T00:26:03.743Z,25.97
2023-01-26T00:28:31.335Z,26.13
2023-01-26T00:31:00.758Z,26.05
2023-01-26T00:33:27.371Z,26.26
2023-01-26T00:35:53.739Z,25.89
2023-01-26T00:38:20.137Z,26.08
2023-01-26T00:40:46.830Z,26.45
2023-01-26T00:43:13.491Z,26.16
2023-01-26T00:45:39.982Z,26.15
2023-01-26T00:48:06.371Z,25.42
2023-01-26T00:50:40.031Z,25.42
2023-01-26T00:53:06.470Z,25.99
2023-01-26T00:55:35.179Z,25.66
2023-01-26T00:58:02.549Z,26.04
2023-01-26T01:00:28.929Z,25.70
2023-01-26T01:02:55.541Z,26.13
2023-01-26T01:05:22.068Z,25.58
2023-01-26T01:07:50.763Z,26.30
2023-01-26T01:10:17.369Z,25.49
2023-01-26T01:12:43.733Z,25.44
2023-01-26T01:15:10.079Z,24.57
2023-01-26T01:17:36.427Z,24.78
2023-01-26T01:20:05.361Z,24.66
2023-01-26T01:22:32.151Z,24.22
2023-01-26T01:24:58.539Z,24.54
2023-01-26T01:27:24.889Z,24.24
2023-01-26T01:29:51.539Z,24.64
2023-01-26T01:32:17.881Z,24.36
2023-01-26T01:34:44.252Z,23.52
2023-01-26T01:37:10.625Z,23.78
2023-01-26T01:39:37.017Z,23.57
2023-01-26T01:42:03.419Z,24.12
2023-01-26T01:44:29.822Z,23.92
2023-01-26T01:46:57.223Z,22.94
2023-01-26T01:49:24.861Z,22.48
2023-01-26T01:51:51.201Z,22.68
2023-01-26T01:54:17.565Z,22.62
2023-01-26T01:56:43.909Z,23.12
2023-01-26T01:59:10.239Z,21.93
2023-01-26T02:01:36.634Z,22.01
2023-01-26T02:04:03.036Z,21.86
2023-01-26T02:06:36.694Z,21.47
2023-01-26T02:09:03.049Z,21.19
2023-01-26T02:11:31.709Z,20.69
2023-01-26T02:14:00.164Z,20.96
2023-01-26T02:16:26.614Z,20.35
2023-01-26T02:18:53.161Z,20.92
2023-01-26T02:21:19.580Z,21.69
2023-01-26T02:23:48.279Z,21.77
2023-01-26T02:26:14.716Z,21.79
2023-01-26T02:28:42.131Z,21.93
2023-01-26T02:31:08.516Z,21.77
2023-01-26T02:33:34.933Z,21.61
2023-01-26T02:36:01.338Z,21.83
2023-01-26T02:38:27.916Z,21.32
2023-01-26T02:40:54.815Z,21.17
2023-01-26T02:43:21.180Z,21.13
2023-01-26T02:45:49.930Z,20.22
2023-01-26T02:48:16.275Z,20.12
2023-01-26T02:50:42.884Z,20.86
2023-01-26T02:53:09.266Z,21.20
2023-01-26T02:55:38.313Z,20.72
2023-01-26T02:58:04.745Z,21.49
2023-01-26T03:00:33.625Z,21.73
2023-01-26T03:03:00.018Z,21.81
2023-01-26T03:05:26.601Z,22.34
2023-01-26T03:07:52.965Z,22.91
2023-01-26T03:10:19.317Z,23.02
2023-01-26T03:12:45.663Z,23.13
2023-01-26T03:15:12.224Z,23.22
2023-01-26T03:17:38.605Z,22.86
2023-01-26T03:20:04.961Z,22.98
2023-01-26T03:22:33.619Z,23.27
2023-01-26T03:25:00.125Z,23.37
2023-01-26T03:27:26.513Z,23.30
2023-01-26T03:29:52.924Z,23.90
2023-01-26T03:32:19.319Z,23.22
2023-01-26T03:34:45.691Z,24.53
2023-01-26T03:37:12.083Z,24.71
2023-01-26T03:39:38.487Z,24.80
2023-01-26T03:42:16.876Z,24.70
2023-01-26T03:44:43.229Z,24.70
2023-01-26T03:47:17.418Z,24.79
2023-01-26T03:49:43.755Z,24.61
2023-01-26T03:52:10.318Z,24.87
2023-01-26T03:54:36.708Z,25.01
2023-01-26T03:57:05.256Z,25.22
2023-01-26T03:59:31.647Z,25.51
2023-01-26T04:01:58.710Z,25.86
2023-01-26T04:04:25.076Z,25.68
2023-01-26T04:06:52.479Z,25.36
2023-01-26T04:09:19.218Z,25.60
2023-01-26T04:11:52.845Z,25.64
2023-01-26T04:14:19.488Z,25.81
2023-01-26T04:16:45.877Z,26.55
2023-01-26T04:19:12.238Z,26.18
2023-01-26T04:21:38.631Z,25.97
2023-01-26T04:24:05.060Z,27.67
2023-01-26T04:26:33.783Z,26.64
2023-01-26T04:29:01.259Z,27.09
2023-01-26T04:31:29.720Z,26.92
2023-01-26T04:33:56.368Z,25.88
2023-01-26T04:36:22.757Z,26.66
2023-01-26T04:38:49.370Z,25.60
2023-01-26T04:41:15.757Z,24.95
2023-01-26T04:43:43.536Z,25.94
2023-01-26T04:46:09.947Z,25.74
2023-01-26T04:48:36.362Z,25.88
2023-01-26T04:51:02.847Z,24.11
2023-01-26T04:53:29.627Z,24.43
2023-01-26T04:55:56.128Z,24.63
2023-01-26T04:58:22.647Z,24.24
2023-01-26T05:00:51.216Z,25.74
2023-01-26T05:03:17.823Z,25.92
2023-01-26T05:05:45.374Z,24.51
2023-01-26T05:08:11.727Z,25.07
2023-01-26T05:10:40.384Z,24.57
2023-01-26T05:13:07.311Z,24.90
2023-01-26T05:15:38.539Z,24.36
2023-01-26T05:18:04.983Z,24.05
2023-01-26T05:20:32.456Z,24.41
2023-01-26T05:23:00.180Z,24.79
2023-01-26T05:25:26.867Z,25.49
2023-01-26T05:27:56.212Z,25.18
2023-01-26T05:30:22.909Z,25.18
2023-01-26T05:32:49.263Z,26.01
2023-01-26T05:35:16.162Z,25.65
2023-01-26T05:37:44.613Z,26.36
2023-01-26T05:40:13.334Z,26.31
2023-01-26T05:42:41.329Z,27.02
2023-01-26T05:45:10.011Z,27.96
2023-01-26T05:47:37.862Z,28.75
2023-01-26T05:50:04.767Z,28.31
2023-01-26T05:52:33.437Z,28.41
2023-01-26T05:54:59.831Z,28.35
2023-01-26T05:57:26.245Z,27.87
2023-01-26T05:59:52.639Z,27.96
2023-01-26T06:02:19.143Z,27.06
2023-01-26T06:04:45.561Z,26.48
2023-01-26T06:07:13.163Z,26.80
2023-01-26T06:09:39.561Z,27.34
2023-01-26T06:12:06.103Z,25.72
2023-01-26T06:14:32.514Z,26.33
2023-01-26T06:16:58.918Z,27.32
2023-01-26T06:19:27.868Z,26.49
2023-01-26T06:21:54.225Z,26.00
2023-01-26T06:24:20.694Z,26.51
2023-01-26T06:26:49.545Z,25.94
2023-01-26T06:29:16.025Z,26.00
2023-01-26T06:31:42.416Z,25.80
2023-01-26T06:34:11.541Z,26.58
2023-01-26T06:36:37.893Z,26.99
2023-01-26T06:39:05.312Z,26.50
2023-01-26T06:41:31.688Z,25.90
2023-01-26T06:44:00.191Z,25.87
2023-01-26T06:46:26.660Z,26.20
2023-01-26T06:48:53.061Z,25.43
2023-01-26T06:51:19.486Z,25.39
2023-01-26T06:53:45.932Z,25.93
2023-01-26T06:56:12.332Z,25.70
2023-01-26T06:58:38.719Z,25.85
2023-01-26T07:01:05.131Z,25.28
2023-01-26T07:03:31.549Z,24.62
2023-01-26T07:05:57.914Z,25.31
2023-01-26T07:08:24.259Z,23.92
2023-01-26T07:10:50.667Z,23.44
2023-01-26T07:13:17.086Z,24.23
2023-01-26T07:15:43.544Z,23.92
2023-01-26T07:18:10.002Z,23.49
2023-01-26T07:20:36.375Z,23.27
2023-01-26T07:23:02.765Z,22.49
2023-01-26T07:25:29.222Z,22.71
2023-01-26T07:27:55.576Z,22.86
2023-01-26T07:30:22.973Z,22.70
2023-01-26T07:32:52.208Z,23.15
2023-01-26T07:35:18.584Z,23.18
2023-01-26T07:37:44.938Z,22.78
2023-01-26T07:40:12.562Z,22.22
2023-01-26T07:42:39.279Z,22.47
2023-01-26T07:45:05.756Z,23.03
2023-01-26T07:47:32.138Z,21.61
2023-01-26T07:49:58.537Z,22.14
2023-01-26T07:52:25.166Z,22.48
2023-01-26T07:54:51.575Z,22.27
2023-01-26T07:57:18.295Z,21.63
2023-01-26T07:59:44.686Z,22.59
2023-01-26T08:02:11.255Z,21.83
2023-01-26T08:04:38.750Z,22.60
2023-01-26T08:07:07.470Z,21.79
2023-01-26T08:09:36.505Z,21.24
2023-01-26T08:12:03.010Z,21.40
2023-01-26T08:14:41.635Z,20.64
2023-01-26T08:17:11.665Z,19.79
2023-01-26T08:19:38.015Z,20.67
2023-01-26T08:22:04.391Z,19.81
2023-01-26T08:24:30.787Z,20.95
2023-01-26T08:26:57.189Z,20.26
2023-01-26T08:29:23.681Z,19.61
2023-01-26T08:31:50.297Z,20.34
2023-01-26T08:34:16.701Z,19.98
2023-01-26T08:36:43.187Z,20.68
2023-01-26T08:39:12.145Z,21.03
2023-01-26T08:41:38.712Z,20.59
2023-01-26T08:44:11.656Z,20.17
2023-01-26T08:46:38.016Z,20.08
2023-01-26T08:49:04.579Z,20.63
2023-01-26T08:51:31.954Z,20.90
2023-01-26T08:54:01.558Z,22.15
2023-01-26T08:56:27.923Z,21.93
2023-01-26T08:58:54.283Z,21.99
2023-01-26T09:01:20.734Z,23.66
2023-01-26T09:03:47.174Z,24.70
2023-01-26T09:06:13.675Z,24.08
2023-01-26T09:08:42.622Z,23.10
2023-01-26T09:11:08.985Z,24.13
2023-01-26T09:13:36.536Z,23.39
2023-01-26T09:16:07.303Z,23.15
2023-01-26T09:18:33.667Z,22.95
2023-01-26T09:21:02.208Z,21.70
2023-01-26T09:23:28.636Z,22.76
2023-01-26T09:25:55.049Z,22.95
2023-01-26T09:28:21.698Z,22.76
2023-01-26T09:30:50.243Z,23.20
2023-01-26T09:33:20.019Z,23.22
2023-01-26T09:35:46.363Z,24.05
2023-01-26T09:38:13.748Z,23.87
2023-01-26T09:40:40.174Z,24.09
2023-01-26T09:43:06.928Z,23.55
2023-01-26T09:45:33.315Z,23.34
2023-01-26T09:47:59.712Z,24.38
2023-01-26T09:50:26.131Z,23.41
2023-01-26T09:52:57.051Z,23.61
2023-01-26T09:55:23.751Z,25.10
2023-01-26T09:57:53.044Z,23.34
2023-01-26T10:00:20.429Z,23.86
2023-01-26T10:02:46.853Z,23.86
2023-01-26T10:05:13.394Z,23.64
2023-01-26T10:07:40.234Z,23.45
2023-01-26T10:10:06.885Z,24.27
2023-01-26T10:12:33.302Z,24.17
2023-01-26T10:15:01.859Z,24.40
2023-01-26T10:17:28.237Z,24.52
2023-01-26T10:19:54.743Z,24.03
2023-01-26T10:22:22.109Z,23.91
2023-01-26T10:24:49.289Z,23.86
2023-01-26T10:27:16.011Z,24.29
2023-01-26T10:29:43.487Z,23.88
2023-01-26T10:32:11.164Z,23.44
2023-01-26T10:34:39.413Z,23.19
2023-01-26T10:37:05.899Z,24.23
2023-01-26T10:39:32.458Z,23.40
2023-01-26T10:41:58.830Z,22.78
2023-01-26T10:44:26.330Z,23.20
2023-01-26T10:46:52.732Z,23.82
2023-01-26T10:49:19.333Z,24.65
2023-01-26T10:51:47.820Z,23.52
2023-01-26T10:54:14.638Z,24.55
2023-01-26T10:56:41.038Z,23.89
2023-01-26T10:59:09.874Z,22.53
2023-01-26T11:01:36.354Z,23.25
2023-01-26T11:04:02.760Z,23.44
2023-01-26T11:06:29.153Z,24.69
2023-01-26T11:08:55.677Z,24.15
2023-01-26T11:11:22.220Z,24.25
2023-01-26T11:13:48.570Z,24.54
2023-01-26T11:16:15.129Z,24.16
2023-01-26T11:18:42.574Z,24.07
2023-01-26T11:21:09.012Z,23.66
2023-01-26T11:23:35.424Z,24.24
2023-01-26T11:26:01.780Z,23.81
2023-01-26T11:28:28.497Z,24.50
2023-01-26T11:30:57.441Z,23.61
2023-01-26T11:33:24.037Z,24.16
2023-01-26T11:35:50.460Z,24.20
2023-01-26T11:38:17.036Z,24.48
2023-01-26T11:40:43.444Z,25.03
2023-01-26T11:43:09.846Z,25.72
2023-01-26T11:45:36.569Z,26.44
2023-01-26T11:48:03.110Z,25.23
2023-01-26T11:50:29.580Z,24.62
2023-01-26T11:52:56.084Z,25.45
2023-01-26T11:55:22.452Z,25.15
2023-01-26T11:57:48.857Z,24.91
2023-01-26T12:00:30.112Z,24.86
2023-01-26T12:02:57.422Z,24.78
2023-01-26T12:05:23.805Z,23.89
2023-01-26T12:07:50.197Z,23.66
2023-01-26T12:10:18.662Z,24.56
2023-01-26T12:12:45.067Z,24.56
2023-01-26T12:15:11.826Z,24.87
2023-01-26T12:17:38.374Z,26.08
2023-01-26T12:20:04.743Z,25.70
2023-01-26T12:22:33.934Z,25.79
2023-01-26T12:27:47.240Z,24.50
2023-01-26T12:30:14.559Z,25.02
2023-01-26T12:32:43.655Z,25.22
2023-01-26T12:35:10.292Z,25.17
2023-01-26T12:37:36.936Z,26.05
2023-01-26T12:40:03.848Z,25.05
2023-01-26T12:42:30.473Z,26.12
2023-01-26T12:44:57.065Z,26.46
2023-01-26T12:47:24.494Z,26.53
2023-01-26T12:49:51.183Z,25.54
2023-01-26T12:52:17.655Z,26.17
2023-01-26T12:54:44.018Z,26.14
2023-01-26T12:57:10.606Z,26.15
2023-01-26T12:59:39.595Z,24.74
2023-01-26T13:02:14.782Z,26.47
2023-01-26T13:04:42.433Z,25.30
2023-01-26T13:07:09.320Z,25.46
2023-01-26T13:09:35.939Z,25.82
2023-01-26T13:12:02.341Z,26.61
2023-01-26T13:14:31.103Z,25.83
2023-01-26T13:16:57.619Z,26.09
2023-01-26T13:19:24.038Z,25.90
2023-01-26T13:21:50.449Z,25.19
2023-01-26T13:24:16.864Z,26.20
2023-01-26T13:26:43.663Z,25.27
2023-01-26T13:29:10.229Z,25.75
2023-01-26T13:31:36.817Z,26.06
2023-01-26T13:34:03.411Z,25.38
2023-01-26T13:36:29.898Z,25.22
2023-01-26T13:38:56.271Z,25.70
2023-01-26T13:41:22.665Z,26.09
2023-01-26T13:43:49.163Z,26.60
2023-01-26T13:46:15.748Z,26.04
2023-01-26T13:48:42.161Z,26.39
2023-01-26T13:51:08.621Z,26.53
2023-01-26T13:53:35.080Z,26.79
2023-01-26T13:56:01.483Z,25.72
2023-01-26T13:58:27.953Z,25.18
2023-01-26T14:00:54.344Z,24.47
2023-01-26T14:03:20.996Z,24.87
2023-01-26T14:05:47.386Z,24.72
2023-01-26T14:08:16.787Z,25.02
2023-01-26T14:10:43.332Z,25.74
2023-01-26T14:13:16.880Z,25.16
2023-01-26T14:15:43.236Z,25.81
2023-01-26T14:18:09.847Z,25.57
2023-01-26T14:20:36.238Z,25.29
2023-01-26T14:23:03.267Z,25.58
2023-01-26T14:25:29.976Z,25.38
2023-01-26T14:27:56.347Z,25.01
2023-01-26T14:30:22.832Z,25.48
2023-01-26T14:32:49.364Z,24.56
2023-01-26T14:35:23.593Z,24.76
2023-01-26T14:37:50.445Z,24.73
2023-01-26T14:40:16.840Z,25.09
2023-01-26T14:42:43.202Z,24.91
2023-01-26T14:45:09.549Z,25.02
2023-01-26T14:47:35.976Z,24.88
2023-01-26T14:50:02.712Z,24.54
2023-01-26T14:52:29.113Z,24.35
2023-01-26T14:54:55.623Z,25.87
2023-01-26T14:57:22.016Z,25.46
2023-01-26T14:59:49.267Z,25.76
2023-01-26T15:02:16.208Z,25.34
2023-01-26T15:04:42.628Z,25.52
2023-01-26T15:07:09.286Z,25.06
2023-01-26T15:09:35.743Z,25.33
2023-01-26T15:12:02.145Z,25.83
2023-01-26T15:14:28.629Z,25.22
2023-01-26T15:16:55.014Z,26.17
2023-01-26T15:19:21.363Z,25.70
2023-01-26T15:21:49.758Z,26.40
2023-01-26T15:24:16.342Z,26.80
2023-01-26T15:26:42.894Z,26.12
2023-01-26T15:29:10.369Z,25.70
2023-01-26T15:31:39.222Z,25.69
2023-01-26T15:34:05.679Z,26.77
2023-01-26T15:36:38.170Z,26.57
2023-01-26T15:39:04.994Z,25.64
2023-01-26T15:41:32.372Z,26.05
2023-01-26T15:43:59.286Z,26.31
2023-01-26T15:46:27.307Z,25.07
2023-01-26T15:48:53.712Z,26.17
2023-01-26T15:51:20.213Z,25.75
2023-01-26T15:53:50.611Z,26.50
2023-01-26T15:56:17.312Z,26.74
2023-01-26T15:58:43.729Z,26.40
2023-01-26T16:01:11.170Z,26.19
2023-01-26T16:03:38.676Z,27.35
2023-01-26T16:06:05.094Z,27.01
2023-01-26T16:08:31.490Z,27.62
2023-01-26T16:10:57.855Z,26.81
2023-01-26T16:13:24.495Z,27.10
2023-01-26T16:15:50.930Z,26.88
2023-01-26T16:18:17.379Z,27.97
2023-01-26T16:20:43.789Z,27.92
2023-01-26T16:23:12.519Z,27.64
2023-01-26T16:25:39.166Z,28.46
2023-01-26T16:28:06.235Z,29.51
2023-01-26T16:30:32.584Z,28.93
2023-01-26T16:33:00.164Z,28.62
2023-01-26T16:35:26.685Z,27.63
2023-01-26T16:37:55.489Z,28.61
2023-01-26T16:40:21.889Z,28.39
2023-01-26T16:42:48.361Z,28.37
2023-01-26T16:45:14.782Z,28.46
2023-01-26T16:47:41.472Z,27.59
2023-01-26T16:50:07.859Z,28.10
2023-01-26T16:52:34.220Z,28.27
2023-01-26T16:55:00.571Z,28.28
2023-01-26T16:57:27.114Z,28.33
2023-01-26T16:59:54.306Z,28.55
2023-01-26T17:02:20.722Z,27.42
2023-01-26T17:04:47.225Z,27.63
2023-01-26T17:07:13.628Z,27.85
2023-01-26T17:09:40.101Z,28.38
2023-01-26T17:12:06.603Z,28.95
2023-01-26T17:14:33.313Z,28.11
2023-01-26T17:17:00.864Z,28.08
2023-01-26T17:19:27.930Z,28.87
2023-01-26T17:21:54.298Z,28.58
2023-01-26T17:24:20.719Z,28.13
2023-01-26T17:26:47.206Z,27.89
2023-01-26T17:29:13.677Z,27.62
2023-01-26T17:31:40.063Z,28.54
2023-01-26T17:34:06.667Z,28.02
2023-01-26T17:36:33.027Z,28.18
2023-01-26T17:38:59.494Z,27.73
2023-01-26T17:41:25.944Z,29.34
2023-01-26T17:43:52.303Z,30.90
2023-01-26T17:46:18.708Z,29.39
2023-01-26T17:48:45.715Z,28.99
2023-01-26T17:51:12.425Z,29.30
2023-01-26T17:53:41.348Z,28.06
2023-01-26T17:56:08.838Z,29.03
2023-01-26T17:58:37.277Z,27.87
2023-01-26T18:01:03.765Z,27.22
2023-01-26T18:03:30.155Z,27.52
2023-01-26T18:05:56.544Z,28.10
2023-01-26T18:08:22.911Z,29.41
2023-01-26T18:10:49.474Z,28.86
2023-01-26T18:13:15.961Z,28.75
2023-01-26T18:15:44.869Z,28.81
2023-01-26T18:18:11.335Z,27.95
2023-01-26T18:20:37.808Z,27.55
2023-01-26T18:23:04.184Z,27.05
2023-01-26T18:25:30.650Z,27.87
2023-01-26T18:27:57.111Z,27.87
2023-01-26T18:30:23.656Z,29.77
2023-01-26T18:32:50.113Z,28.07
2023-01-26T18:35:16.539Z,27.93
2023-01-26T18:37:42.881Z,27.52
2023-01-26T18:40:09.277Z,27.87
2023-01-26T18:42:35.739Z,26.90
2023-01-26T18:45:04.487Z,26.20
2023-01-26T18:47:30.961Z,26.03
2023-01-26T18:49:58.560Z,26.23
2023-01-26T18:52:25.986Z,25.54
2023-01-26T18:54:52.381Z,25.95
2023-01-26T18:57:18.717Z,25.75
2023-01-26T18:59:45.144Z,25.00
2023-01-26T19:02:11.633Z,25.17
2023-01-26T19:04:38.121Z,24.14
2023-01-26T19:07:04.850Z,25.33
2023-01-26T19:09:31.768Z,24.25
2023-01-26T19:11:58.245Z,25.07
2023-01-26T19:14:24.633Z,25.53
2023-01-26T19:16:51.697Z,25.50
2023-01-26T19:19:18.144Z,24.80
2023-01-26T19:21:45.934Z,25.50
2023-01-26T19:24:14.546Z,25.52
2023-01-26T19:26:40.922Z,25.21
2023-01-26T19:29:08.620Z,24.42
2023-01-26T19:31:35.253Z,24.31
2023-01-26T19:34:02.037Z,24.71
2023-01-26T19:36:28.411Z,24.34
2023-01-26T19:38:54.797Z,24.09
2023-01-26T19:41:21.170Z,23.61
2023-01-26T19:43:47.536Z,23.81
2023-01-26T19:46:13.971Z,24.38
2023-01-26T19:48:43.773Z,24.25
2023-01-26T19:51:10.118Z,24.60
2023-01-26T19:53:36.591Z,25.06
2023-01-26T19:56:02.974Z,23.80
2023-01-26T19:58:29.549Z,24.18
2023-01-26T20:00:57.957Z,24.34
2023-01-26T20:03:24.380Z,23.74
2023-01-26T20:05:51.926Z,23.47
2023-01-26T20:08:19.134Z,23.61
2023-01-26T20:10:46.837Z,23.44
2023-01-26T20:13:13.227Z,23.04
2023-01-26T20:15:39.608Z,23.10
2023-01-26T20:18:05.991Z,23.23
2023-01-26T20:20:32.453Z,22.43
2023-01-26T20:23:01.109Z,22.91
2023-01-26T20:25:27.519Z,23.78
2023-01-26T20:27:53.963Z,24.68
2023-01-26T20:30:20.644Z,24.56
2023-01-26T20:32:47.285Z,25.11
2023-01-26T20:35:13.788Z,23.74
2023-01-26T20:37:40.271Z,23.82
2023-01-26T20:40:06.723Z,23.76
2023-01-26T20:42:33.099Z,23.52
2023-01-26T20:44:59.452Z,22.65
2023-01-26T20:47:25.923Z,22.56
2023-01-26T20:49:52.266Z,22.07
2023-01-26T20:52:18.689Z,22.75
2023-01-26T20:54:45.246Z,22.98
2023-01-26T20:57:11.597Z,23.16
2023-01-26T20:59:38.998Z,23.66
2023-01-26T21:02:05.521Z,23.12
2023-01-26T21:04:39.120Z,22.69
2023-01-26T21:07:05.779Z,21.27
2023-01-26T21:09:32.615Z,21.89
2023-01-26T21:11:59.026Z,21.37
2023-01-26T21:14:25.441Z,22.00
2023-01-26T21:16:52.000Z,21.36
2023-01-26T21:19:18.546Z,21.31
2023-01-26T21:21:45.154Z,21.88
2023-01-26T21:24:11.551Z,21.90
2023-01-26T21:26:38.304Z,21.02
2023-01-26T21:29:04.709Z,21.06
2023-01-26T21:31:31.133Z,20.33
2023-01-26T21:33:57.548Z,19.81
2023-01-26T21:36:24.320Z,19.75
2023-01-26T21:38:50.753Z,20.26
2023-01-26T21:41:17.168Z,19.30
2023-01-26T21:43:43.775Z,19.83
2023-01-26T21:46:10.231Z,19.91
2023-01-26T21:48:36.637Z,20.02
2023-01-26T21:51:03.011Z,19.73
2023-01-26T21:53:29.471Z,19.66
2023-01-26T21:55:55.868Z,19.37
2023-01-26T21:58:22.235Z,19.95
2023-01-26T22:00:48.789Z,19.39
2023-01-26T22:03:15.283Z,20.13
2023-01-26T22:05:41.652Z,18.94
2023-01-26T22:08:08.764Z,19.23
2023-01-26T22:10:35.281Z,19.48
2023-01-26T22:13:02.366Z,18.62
2023-01-26T22:15:28.757Z,18.74
2023-01-26T22:17:55.315Z,18.76
2023-01-26T22:20:23.851Z,19.59
2023-01-26T22:22:50.311Z,18.50
2023-01-26T22:25:16.664Z,18.92
2023-01-26T22:27:43.212Z,19.30
2023-01-26T22:30:10.307Z,18.59
2023-01-26T22:32:38.023Z,18.92
2023-01-26T22:35:05.630Z,18.52
2023-01-26T22:37:31.978Z,19.13
2023-01-26T22:39:58.325Z,19.22
2023-01-26T22:42:24.687Z,19.08
2023-01-26T22:44:51.329Z,19.76
2023-01-26T22:47:17.754Z,18.99
2023-01-26T22:49:44.117Z,18.62
2023-01-26T22:52:10.456Z,18.72
2023-01-26T22:54:36.862Z,19.13
2023-01-26T22:57:04.222Z,19.08
2023-01-26T22:59:30.566Z,19.15
2023-01-26T23:01:56.902Z,18.29
2023-01-26T23:04:23.439Z,18.01
2023-01-26T23:06:49.972Z,18.07
2023-01-26T23:09:16.323Z,18.39
2023-01-26T23:11:42.727Z,18.76
2023-01-26T23:14:09.144Z,18.83
2023-01-26T23:16:35.689Z,19.52
2023-01-26T23:19:02.241Z,19.44
2023-01-26T23:21:28.605Z,19.96
2023-01-26T23:23:55.108Z,18.65
2023-01-26T23:26:21.539Z,18.55
2023-01-26T23:28:47.907Z,18.52
2023-01-26T23:31:14.339Z,18.84
2023-01-26T23:33:41.789Z,18.84
2023-01-26T23:36:09.214Z,18.20
2023-01-26T23:38:35.687Z,17.78
2023-01-26T23:41:02.114Z,17.11
2023-01-26T23:43:28.483Z,17.02
2023-01-26T23:45:55.874Z,17.04
2023-01-26T23:48:23.386Z,17.19
2023-01-26T23:50:49.738Z,17.34
2023-01-26T23:53:16.103Z,16.72
2023-01-26T23:55:42.549Z,17.03
2023-01-26T23:58:11.975Z,17.08
